Aeroporto :
LOGIN :

Iscrizione | Disclaimer

   EN    FR    IT 

 










Sommario :    VFR   VFR Marginale   IFR   IFR Intensivo   IFR Molto Intensivo
Visibilità : 
Base nubi : 
>= 8 km
>= 3000ft
5 / 8 km
1000 / 3000 ft
1500m / 5 km
500 / 1000 ft
800 / 1500m
200 / 500 ft
< 800m
< 200 ft
Simboli :   Temporali  Nebbia  Neve Forte  Precipitazioni Forti  Vento > 20 kt
SIGMETs :   Varie  Temporali  Ghiacco  Turbolenza  Onda orograficha  Ceneri Vulcaniche






- Altitudine del aeroporto : 146 ft
- Codice IATA : RKE


EKRK - Roskilde Tune

ULTIMO METAR :
  • 111920Z AUTO 15015KT 9999 SCT015/// BKN180/// 05/02 Q1004

METARs OBSOLETI :
  • 111850Z AUTO 15013KT 9999 BKN015/// 05/02 Q1005
  • 111820Z AUTO 16012KT 9999 BKN017/// 05/02 Q1005
  • 111750Z AUTO 15012KT 9999 BKN018/// 05/02 Q1005
  • 111720Z AUTO 16010KT 9999 SCT018/// BKN020/// 05/02 Q1006
  • 111650Z AUTO 16011KT 9999 FEW022/// 05/01 Q1006

TAF TAF EKRK
Valido dal 11 a 18 ore il 12 a 03 ore UTC


111717Z 1118/1203 17012KT 9999 SCT018
TEMPO 1118/1203 BKN012



MetMap, La meteo Aeronautica in un colpo d'occhio ! - Copyright ORBIFLY Dicembre 2007 - Disclaimer

ORBIFLY MET'MAP TEAM :

Programmazione e sviluppo : Alexandra Zaïnal
Concezione e sviluppo : Baudouin d'Aumeries
Co-Programmazione e sviluppo : Marc-Olivier Méhu
Supporto tecnico e logistico : Manuel Goepfert
Aiuto per la traduzione : Arnaldo La Scala

Contatto : metmap@orbifly.com




FONTI E CREDITI :

   NOAA